createdAt,value
2022-12-03T00:03:48.251Z,-4.70
2022-12-03T00:08:50.089Z,-4.70
2022-12-03T00:13:51.844Z,-4.70
2022-12-03T00:18:53.625Z,-4.60
2022-12-03T00:23:55.358Z,-4.60
2022-12-03T00:28:57.943Z,-4.60
2022-12-03T00:33:59.715Z,-4.60
2022-12-03T00:39:01.444Z,-4.60
2022-12-03T00:44:03.306Z,-4.60
2022-12-03T00:49:05.306Z,-4.60
2022-12-03T00:54:07.040Z,-4.60
2022-12-03T00:59:08.954Z,-4.50
2022-12-03T01:04:10.915Z,-4.40
2022-12-03T01:09:12.648Z,-4.40
2022-12-03T01:14:16.945Z,-4.40
2022-12-03T01:19:19.627Z,-4.40
2022-12-03T01:24:21.934Z,-4.40
2022-12-03T01:29:24.413Z,-4.40
2022-12-03T01:34:26.154Z,-4.30
2022-12-03T01:39:27.909Z,-4.30
2022-12-03T01:44:33.921Z,-4.40
2022-12-03T01:49:59.275Z,-4.30
2022-12-03T01:55:02.795Z,-4.30
2022-12-03T02:00:05.639Z,-4.30
2022-12-03T02:05:17.372Z,-4.30
2022-12-03T02:10:23.383Z,-4.30
2022-12-03T02:15:25.837Z,-4.30
2022-12-03T02:20:28.022Z,-4.30
2022-12-03T02:25:32.189Z,-4.20
2022-12-03T02:30:34.361Z,-4.20
2022-12-03T02:35:37.360Z,-4.30
2022-12-03T02:40:39.868Z,-4.40
2022-12-03T02:45:54.731Z,-4.40
2022-12-03T02:51:01.254Z,-4.40
2022-12-03T02:56:04.789Z,-4.40
2022-12-03T03:01:08.107Z,-4.30
2022-12-03T03:06:10.217Z,-4.30
2022-12-03T03:11:12.178Z,-4.30
2022-12-03T03:16:13.960Z,-4.30
2022-12-03T03:21:15.723Z,-4.30
2022-12-03T03:26:17.828Z,-4.30
2022-12-03T03:31:23.174Z,-4.30
2022-12-03T03:36:26.220Z,-4.30
2022-12-03T03:41:29.141Z,-4.30
2022-12-03T03:46:33.361Z,-4.30
2022-12-03T03:51:36.449Z,-4.20
2022-12-03T03:56:38.474Z,-4.20
2022-12-03T04:01:40.394Z,-4.30
2022-12-03T04:06:42.324Z,-4.30
2022-12-03T04:12:02.662Z,-4.30
2022-12-03T04:17:04.439Z,-4.30
2022-12-03T04:22:24.879Z,-4.30
2022-12-03T04:27:45.272Z,-4.20
2022-12-03T04:33:05.947Z,-4.20
2022-12-03T04:38:07.698Z,-4.10
2022-12-03T04:43:09.514Z,-4.20
2022-12-03T04:48:11.293Z,-4.30
2022-12-03T04:53:13.071Z,-4.30
2022-12-03T04:58:14.791Z,-4.20
2022-12-03T05:03:16.551Z,-4.30
2022-12-03T05:08:18.343Z,-4.20
2022-12-03T05:13:20.122Z,-4.20
2022-12-03T05:18:21.880Z,-4.30
2022-12-03T05:23:23.935Z,-4.20
2022-12-03T05:28:25.726Z,-4.30
2022-12-03T05:33:27.474Z,-4.30
2022-12-03T05:38:29.254Z,-4.30
2022-12-03T05:43:30.991Z,-4.20
2022-12-03T05:48:32.818Z,-4.20
2022-12-03T05:53:34.542Z,-4.10
2022-12-03T05:58:36.310Z,-4.10
2022-12-03T06:03:38.163Z,-4.10
2022-12-03T06:08:40.041Z,-4.10
2022-12-03T06:13:41.821Z,-4.20
2022-12-03T06:18:43.579Z,-4.10
2022-12-03T06:23:45.359Z,-4.20
2022-12-03T06:28:49.139Z,-4.20
2022-12-03T06:33:50.915Z,-4.20
2022-12-03T06:38:52.663Z,-4.20
2022-12-03T06:43:54.454Z,-4.30
2022-12-03T06:48:56.157Z,-4.30
2022-12-03T06:53:57.953Z,-4.30
2022-12-03T06:58:59.725Z,-4.30
2022-12-03T07:04:01.546Z,-4.30
2022-12-03T07:09:03.970Z,-4.30
2022-12-03T07:14:07.811Z,-4.20
2022-12-03T07:19:10.114Z,-4.10
2022-12-03T07:24:12.299Z,-4.10
2022-12-03T07:29:14.143Z,-4.10
2022-12-03T07:34:16.038Z,-4.10
2022-12-03T07:39:17.748Z,-4.00
2022-12-03T07:44:19.499Z,-4.10
2022-12-03T07:49:21.278Z,-4.00
2022-12-03T07:54:26.278Z,-4.00
2022-12-03T07:59:28.494Z,-4.00
2022-12-03T08:04:30.354Z,-4.10
2022-12-03T08:09:32.181Z,-4.00
2022-12-03T08:14:35.924Z,-4.10
2022-12-03T08:19:37.702Z,-3.90
2022-12-03T08:24:39.506Z,-3.90
2022-12-03T08:29:41.287Z,-4.00
2022-12-03T08:34:44.400Z,-4.10
2022-12-03T08:39:48.460Z,-4.20
2022-12-03T08:44:50.179Z,-4.30
2022-12-03T08:49:56.034Z,-4.40
2022-12-03T08:54:58.204Z,-4.50
2022-12-03T09:00:21.850Z,-4.60
2022-12-03T09:05:28.482Z,-4.70
2022-12-03T09:10:45.364Z,-4.60
2022-12-03T09:15:47.169Z,-4.80
2022-12-03T09:20:48.960Z,-4.80
2022-12-03T09:25:50.710Z,-5.00
2022-12-03T09:30:52.451Z,-5.00
2022-12-03T09:35:54.319Z,-5.00
2022-12-03T09:40:56.138Z,-4.90
2022-12-03T09:45:58.376Z,-4.80
2022-12-03T09:51:00.190Z,-4.90
2022-12-03T09:56:01.950Z,-4.90
2022-12-03T10:01:13.642Z,-4.90
2022-12-03T10:06:19.665Z,-5.00
2022-12-03T10:11:24.448Z,-5.10
2022-12-03T10:16:26.648Z,-5.00
2022-12-03T10:21:37.027Z,-5.00
2022-12-03T10:26:41.622Z,-4.90
2022-12-03T10:31:43.390Z,-4.70
2022-12-03T10:36:45.255Z,-4.90
2022-12-03T10:41:47.778Z,-4.90
2022-12-03T10:47:13.627Z,-4.90
2022-12-03T10:52:25.641Z,-4.70
2022-12-03T10:57:28.139Z,-4.90
2022-12-03T11:02:29.944Z,-5.00
2022-12-03T11:07:32.233Z,-5.00
2022-12-03T11:12:35.638Z,-4.90
2022-12-03T11:17:47.330Z,-5.00
2022-12-03T11:22:50.702Z,-5.10
2022-12-03T11:28:11.527Z,-5.00
2022-12-03T11:33:31.897Z,-5.20
2022-12-03T11:38:41.562Z,-5.00
2022-12-03T11:43:52.572Z,-5.30
2022-12-03T11:48:57.680Z,-5.20
2022-12-03T11:54:00.602Z,-5.20
2022-12-03T11:59:04.711Z,-5.00
2022-12-03T12:04:08.586Z,-5.10
2022-12-03T12:09:10.767Z,-5.10
2022-12-03T12:14:13.523Z,-5.10
2022-12-03T12:19:34.174Z,-5.00
2022-12-03T12:24:47.063Z,-5.10
2022-12-03T12:30:04.672Z,-5.10
2022-12-03T12:35:22.664Z,-5.00
2022-12-03T12:40:29.484Z,-5.00
2022-12-03T12:45:34.903Z,-5.10
2022-12-03T12:50:41.151Z,-5.30
2022-12-03T12:55:43.022Z,-5.30
2022-12-03T13:00:49.907Z,-5.30
2022-12-03T13:05:53.213Z,-5.30
2022-12-03T13:10:59.836Z,-5.30
2022-12-03T13:16:16.832Z,-5.20
2022-12-03T13:21:18.530Z,-5.30
2022-12-03T13:26:39.432Z,-5.40
2022-12-03T13:31:48.159Z,-5.40
2022-12-03T13:36:57.088Z,-5.40
2022-12-03T13:42:33.002Z,-5.40
2022-12-03T13:47:36.752Z,-5.30
2022-12-03T13:52:38.519Z,-5.50
2022-12-03T13:57:40.214Z,-5.50
2022-12-03T14:02:42.233Z,-5.50
2022-12-03T14:07:44.090Z,-5.60
2022-12-03T14:12:45.927Z,-5.60
2022-12-03T14:17:48.334Z,-5.60
2022-12-03T14:22:52.899Z,-5.60
2022-12-03T14:27:57.974Z,-5.50
2022-12-03T14:32:59.827Z,-5.60
2022-12-03T14:38:01.634Z,-5.70
2022-12-03T14:43:03.512Z,-5.70
2022-12-03T14:48:05.461Z,-5.80
2022-12-03T14:53:07.263Z,-5.80
2022-12-03T14:58:09.016Z,-5.80
2022-12-03T15:03:10.964Z,-5.70
2022-12-03T15:08:12.853Z,-5.60
2022-12-03T15:13:14.673Z,-5.70
2022-12-03T15:18:16.401Z,-5.70
2022-12-03T15:23:18.171Z,-5.70
2022-12-03T15:28:19.934Z,-5.60
2022-12-03T15:33:21.865Z,-5.40
2022-12-03T15:38:23.800Z,-5.40
2022-12-03T15:43:25.517Z,-5.30
2022-12-03T15:48:27.283Z,-5.40
2022-12-03T15:53:28.998Z,-5.30
2022-12-03T15:58:30.882Z,-5.30
2022-12-03T16:03:32.743Z,-5.40
2022-12-03T16:08:34.498Z,-5.30
2022-12-03T16:13:36.300Z,-5.40
2022-12-03T16:18:38.086Z,-5.40
2022-12-03T16:23:40.126Z,-5.40
2022-12-03T16:28:41.883Z,-5.50
2022-12-03T16:33:43.813Z,-5.50
2022-12-03T16:38:45.597Z,-5.40
2022-12-03T16:43:48.559Z,-5.40
2022-12-03T16:48:50.749Z,-5.40
2022-12-03T16:53:53.030Z,-5.40
2022-12-03T16:58:54.862Z,-5.50
2022-12-03T17:03:56.651Z,-5.50
2022-12-03T17:08:58.398Z,-5.50
2022-12-03T17:14:00.098Z,-5.50
2022-12-03T17:19:01.857Z,-5.60
2022-12-03T17:24:03.765Z,-5.50
2022-12-03T17:29:05.490Z,-5.50
2022-12-03T17:34:07.186Z,-5.40
2022-12-03T17:39:08.932Z,-5.40
2022-12-03T17:44:16.316Z,-5.50
2022-12-03T17:49:21.046Z,-5.50
2022-12-03T17:54:22.909Z,-5.50
2022-12-03T17:59:24.788Z,-5.50
2022-12-03T18:04:26.560Z,-5.50
2022-12-03T18:09:28.334Z,-5.60
2022-12-03T18:14:30.081Z,-5.60
2022-12-03T18:19:31.847Z,-5.60
2022-12-03T18:24:33.723Z,-5.50
2022-12-03T18:29:35.486Z,-5.60
2022-12-03T18:34:37.304Z,-5.60
2022-12-03T18:39:42.836Z,-5.70
2022-12-03T18:44:49.665Z,-5.70
2022-12-03T18:49:52.100Z,-5.70
2022-12-03T18:54:55.254Z,-5.80
2022-12-03T18:59:57.302Z,-5.80
2022-12-03T19:04:59.260Z,-5.90
2022-12-03T19:10:00.989Z,-6.00
2022-12-03T19:15:04.099Z,-5.90
2022-12-03T19:20:10.850Z,-6.00
2022-12-03T19:25:12.597Z,-5.90
2022-12-03T19:30:14.513Z,-5.70
2022-12-03T19:35:16.377Z,-5.70
2022-12-03T19:40:18.202Z,-5.60
2022-12-03T19:45:19.951Z,-5.50
2022-12-03T19:50:23.488Z,-5.30
2022-12-03T19:55:25.654Z,-5.20
2022-12-03T20:00:27.498Z,-5.00
2022-12-03T20:05:33.330Z,-5.00
2022-12-03T20:10:35.637Z,-4.90
2022-12-03T20:15:37.532Z,-4.80
2022-12-03T20:20:39.242Z,-4.70
2022-12-03T20:25:41.130Z,-4.60
2022-12-03T20:30:44.572Z,-4.50
2022-12-03T20:35:52.641Z,-4.30
2022-12-03T20:40:54.353Z,-4.30
2022-12-03T20:46:02.413Z,-4.20
2022-12-03T20:51:09.662Z,-4.10
2022-12-03T20:56:18.301Z,-4.00
2022-12-03T21:01:29.100Z,-3.90
2022-12-03T21:06:31.366Z,-3.90
2022-12-03T21:11:35.822Z,-3.80
2022-12-03T21:17:06.767Z,-3.80
2022-12-03T21:22:01.868Z,-3.70
2022-12-03T21:27:03.700Z,-3.70
2022-12-03T21:32:05.446Z,-3.70
2022-12-03T21:37:07.179Z,-3.70
2022-12-03T21:42:22.078Z,-3.70
2022-12-03T21:47:36.530Z,-3.60
2022-12-03T21:52:39.194Z,-3.60
2022-12-03T21:57:40.942Z,-3.60
2022-12-03T22:02:42.918Z,-3.60
2022-12-03T22:07:44.788Z,-3.60
2022-12-03T22:12:46.526Z,-3.50
2022-12-03T22:17:48.486Z,-3.50
2022-12-03T22:22:50.280Z,-3.50
2022-12-03T22:27:52.039Z,-3.50
2022-12-03T22:32:53.857Z,-3.40
2022-12-03T22:37:55.682Z,-3.40
2022-12-03T22:42:57.444Z,-3.40
2022-12-03T22:47:59.156Z,-3.40
2022-12-03T22:53:00.887Z,-3.40
2022-12-03T22:58:02.760Z,-3.40
2022-12-03T23:03:05.736Z,-3.30
2022-12-03T23:08:10.714Z,-3.30
2022-12-03T23:13:13.126Z,-3.30
2022-12-03T23:18:15.054Z,-3.30
2022-12-03T23:23:17.413Z,-3.20
2022-12-03T23:28:19.138Z,-3.20
2022-12-03T23:33:21.322Z,-3.20
2022-12-03T23:38:23.324Z,-3.20
2022-12-03T23:43:25.125Z,-3.10
2022-12-03T23:48:28.902Z,-3.10
2022-12-03T23:53:30.743Z,-3.00
2022-12-03T23:58:32.653Z,-3.00
